sensor_id;sensor_type;location;lat;lon;timestamp;P1;durP1;ratioP1;P2;durP2;ratioP2
42884;SDS011;28534;48.100;11.584;2022-07-01T00:06:24;4.00;;;2.58;;
42884;SDS011;28534;48.100;11.584;2022-07-01T00:16:27;2.88;;;2.40;;
42884;SDS011;28534;48.100;11.584;2022-07-01T00:26:29;5.53;;;2.88;;
42884;SDS011;28534;48.100;11.584;2022-07-01T00:36:32;6.88;;;3.33;;
42884;SDS011;28534;48.100;11.584;2022-07-01T00:46:34;5.38;;;3.90;;
42884;SDS011;28534;48.100;11.584;2022-07-01T00:56:37;5.13;;;3.90;;
42884;SDS011;28534;48.100;11.584;2022-07-01T01:06:39;6.97;;;4.05;;
42884;SDS011;28534;48.100;11.584;2022-07-01T01:16:42;4.60;;;2.95;;
42884;SDS011;28534;48.100;11.584;2022-07-01T01:26:46;2.85;;;2.22;;
42884;SDS011;28534;48.100;11.584;2022-07-01T01:36:47;2.55;;;1.80;;
42884;SDS011;28534;48.100;11.584;2022-07-01T01:46:51;4.53;;;1.40;;
42884;SDS011;28534;48.100;11.584;2022-07-01T01:56:52;2.55;;;1.17;;
42884;SDS011;28534;48.100;11.584;2022-07-01T02:06:56;3.47;;;1.30;;
42884;SDS011;28534;48.100;11.584;2022-07-01T02:16:58;1.30;;;1.20;;
42884;SDS011;28534;48.100;11.584;2022-07-01T02:27:01;1.20;;;1.10;;
42884;SDS011;28534;48.100;11.584;2022-07-01T02:37:03;1.15;;;0.90;;
42884;SDS011;28534;48.100;11.584;2022-07-01T02:47:06;1.10;;;1.00;;
42884;SDS011;28534;48.100;11.584;2022-07-01T02:57:08;1.50;;;1.00;;
42884;SDS011;28534;48.100;11.584;2022-07-01T03:07:12;1.35;;;0.93;;
42884;SDS011;28534;48.100;11.584;2022-07-01T03:17:13;0.80;;;0.80;;
42884;SDS011;28534;48.100;11.584;2022-07-01T03:27:17;1.10;;;0.80;;
42884;SDS011;28534;48.100;11.584;2022-07-01T03:37:19;1.30;;;1.00;;
42884;SDS011;28534;48.100;11.584;2022-07-01T03:47:23;1.10;;;1.00;;
42884;SDS011;28534;48.100;11.584;2022-07-01T03:57:25;2.75;;;1.00;;
42884;SDS011;28534;48.100;11.584;2022-07-01T04:07:29;1.45;;;1.08;;
42884;SDS011;28534;48.100;11.584;2022-07-01T04:17:31;2.35;;;0.90;;
42884;SDS011;28534;48.100;11.584;2022-07-01T04:27:34;1.92;;;1.05;;
42884;SDS011;28534;48.100;11.584;2022-07-01T04:37:36;1.65;;;1.00;;
42884;SDS011;28534;48.100;11.584;2022-07-01T04:47:39;3.80;;;1.80;;
42884;SDS011;28534;48.100;11.584;2022-07-01T04:57:41;1.98;;;1.60;;
42884;SDS011;28534;48.100;11.584;2022-07-01T05:07:44;3.63;;;1.52;;
42884;SDS011;28534;48.100;11.584;2022-07-01T05:17:46;6.47;;;1.92;;
42884;SDS011;28534;48.100;11.584;2022-07-01T05:28:03;3.97;;;1.70;;
42884;SDS011;28534;48.100;11.584;2022-07-01T05:38:05;12.98;;;2.88;;
42884;SDS011;28534;48.100;11.584;2022-07-01T05:48:08;11.95;;;2.60;;
42884;SDS011;28534;48.100;11.584;2022-07-01T05:58:10;5.25;;;1.70;;
42884;SDS011;28534;48.100;11.584;2022-07-01T06:08:14;2.58;;;1.45;;
42884;SDS011;28534;48.100;11.584;2022-07-01T06:18:16;1.92;;;1.00;;
42884;SDS011;28534;48.100;11.584;2022-07-01T06:28:20;1.77;;;1.10;;
42884;SDS011;28534;48.100;11.584;2022-07-01T06:38:22;1.23;;;1.10;;
42884;SDS011;28534;48.100;11.584;2022-07-01T06:48:25;3.55;;;1.20;;
42884;SDS011;28534;48.100;11.584;2022-07-01T06:58:27;1.45;;;1.10;;
42884;SDS011;28534;48.100;11.584;2022-07-01T07:08:30;3.75;;;1.20;;
42884;SDS011;28534;48.100;11.584;2022-07-01T07:18:33;2.33;;;1.15;;
42884;SDS011;28534;48.100;11.584;2022-07-01T07:28:36;1.52;;;1.30;;
42884;SDS011;28534;48.100;11.584;2022-07-01T07:38:38;4.00;;;1.38;;
42884;SDS011;28534;48.100;11.584;2022-07-01T07:48:42;1.30;;;1.15;;
42884;SDS011;28534;48.100;11.584;2022-07-01T07:58:44;1.58;;;1.15;;
42884;SDS011;28534;48.100;11.584;2022-07-01T08:08:47;3.13;;;1.50;;
42884;SDS011;28534;48.100;11.584;2022-07-01T08:18:49;1.40;;;1.25;;
42884;SDS011;28534;48.100;11.584;2022-07-01T08:28:52;2.65;;;1.30;;
42884;SDS011;28534;48.100;11.584;2022-07-01T08:38:54;2.95;;;1.60;;
42884;SDS011;28534;48.100;11.584;2022-07-01T08:48:57;2.60;;;1.52;;
42884;SDS011;28534;48.100;11.584;2022-07-01T08:58:59;1.13;;;0.60;;
42884;SDS011;28534;48.100;11.584;2022-07-01T09:09:09;2.22;;;0.68;;
42884;SDS011;28534;48.100;11.584;2022-07-01T09:19:13;0.73;;;0.70;;
42884;SDS011;28534;48.100;11.584;2022-07-01T09:29:19;2.83;;;0.93;;
42884;SDS011;28534;48.100;11.584;2022-07-01T09:39:21;0.90;;;0.73;;
42884;SDS011;28534;48.100;11.584;2022-07-01T09:49:25;1.35;;;0.85;;
42884;SDS011;28534;48.100;11.584;2022-07-01T09:59:26;1.70;;;0.98;;
42884;SDS011;28534;48.100;11.584;2022-07-01T10:09:38;1.50;;;0.80;;
42884;SDS011;28534;48.100;11.584;2022-07-01T10:19:55;2.35;;;1.10;;
42884;SDS011;28534;48.100;11.584;2022-07-01T10:30:12;3.65;;;1.10;;
42884;SDS011;28534;48.100;11.584;2022-07-01T10:40:15;2.03;;;1.02;;
42884;SDS011;28534;48.100;11.584;2022-07-01T10:50:19;1.95;;;1.13;;
42884;SDS011;28534;48.100;11.584;2022-07-01T11:00:28;1.83;;;1.08;;
42884;SDS011;28534;48.100;11.584;2022-07-01T11:10:36;1.73;;;0.80;;
42884;SDS011;28534;48.100;11.584;2022-07-01T11:20:37;1.95;;;0.70;;
42884;SDS011;28534;48.100;11.584;2022-07-01T11:30:41;2.50;;;0.90;;
42884;SDS011;28534;48.100;11.584;2022-07-01T11:40:43;3.05;;;1.20;;
42884;SDS011;28534;48.100;11.584;2022-07-01T11:50:46;2.00;;;0.98;;
42884;SDS011;28534;48.100;11.584;2022-07-01T12:00:48;1.60;;;0.90;;
42884;SDS011;28534;48.100;11.584;2022-07-01T12:10:51;8.85;;;1.67;;
42884;SDS011;28534;48.100;11.584;2022-07-01T12:20:53;5.22;;;1.30;;
42884;SDS011;28534;48.100;11.584;2022-07-01T12:31:04;2.58;;;1.15;;
42884;SDS011;28534;48.100;11.584;2022-07-01T12:51:32;2.50;;;1.13;;
42884;SDS011;28534;48.100;11.584;2022-07-01T13:01:34;3.50;;;1.17;;
42884;SDS011;28534;48.100;11.584;2022-07-01T13:11:37;5.80;;;1.40;;
42884;SDS011;28534;48.100;11.584;2022-07-01T13:21:39;7.65;;;1.75;;
42884;SDS011;28534;48.100;11.584;2022-07-01T13:31:42;11.50;;;1.60;;
42884;SDS011;28534;48.100;11.584;2022-07-01T13:41:44;11.88;;;2.15;;
42884;SDS011;28534;48.100;11.584;2022-07-01T13:51:47;4.90;;;1.80;;
42884;SDS011;28534;48.100;11.584;2022-07-01T14:01:49;7.20;;;1.80;;
42884;SDS011;28534;48.100;11.584;2022-07-01T14:11:52;8.95;;;1.88;;
42884;SDS011;28534;48.100;11.584;2022-07-01T14:21:54;13.27;;;2.38;;
42884;SDS011;28534;48.100;11.584;2022-07-01T14:31:57;13.30;;;2.45;;
42884;SDS011;28534;48.100;11.584;2022-07-01T14:42:00;11.50;;;2.10;;
42884;SDS011;28534;48.100;11.584;2022-07-01T14:52:04;9.30;;;2.20;;
42884;SDS011;28534;48.100;11.584;2022-07-01T15:02:06;8.02;;;1.85;;
42884;SDS011;28534;48.100;11.584;2022-07-01T15:12:10;11.35;;;2.33;;
42884;SDS011;28534;48.100;11.584;2022-07-01T15:22:12;10.77;;;2.47;;
42884;SDS011;28534;48.100;11.584;2022-07-01T15:32:15;12.50;;;3.25;;
42884;SDS011;28534;48.100;11.584;2022-07-01T15:42:16;10.43;;;2.83;;
42884;SDS011;28534;48.100;11.584;2022-07-01T15:52:20;10.63;;;2.92;;
42884;SDS011;28534;48.100;11.584;2022-07-01T16:02:22;8.25;;;2.53;;
42884;SDS011;28534;48.100;11.584;2022-07-01T16:12:25;8.32;;;2.70;;
42884;SDS011;28534;48.100;11.584;2022-07-01T16:22:27;7.68;;;2.28;;
42884;SDS011;28534;48.100;11.584;2022-07-01T16:32:30;9.25;;;2.53;;
42884;SDS011;28534;48.100;11.584;2022-07-01T16:42:32;13.02;;;2.88;;
42884;SDS011;28534;48.100;11.584;2022-07-01T16:52:37;12.30;;;2.42;;
42884;SDS011;28534;48.100;11.584;2022-07-01T17:02:42;28.48;;;3.70;;
42884;SDS011;28534;48.100;11.584;2022-07-01T17:12:45;17.95;;;3.08;;
42884;SDS011;28534;48.100;11.584;2022-07-01T17:22:48;14.23;;;3.15;;
42884;SDS011;28534;48.100;11.584;2022-07-01T17:32:56;13.10;;;2.30;;
42884;SDS011;28534;48.100;11.584;2022-07-01T17:43:00;10.93;;;2.20;;
42884;SDS011;28534;48.100;11.584;2022-07-01T17:53:09;7.85;;;2.33;;
42884;SDS011;28534;48.100;11.584;2022-07-01T18:03:12;6.70;;;2.05;;
42884;SDS011;28534;48.100;11.584;2022-07-01T18:13:19;11.40;;;2.25;;
42884;SDS011;28534;48.100;11.584;2022-07-01T18:23:30;10.70;;;2.25;;
42884;SDS011;28534;48.100;11.584;2022-07-01T18:33:36;14.88;;;2.22;;
42884;SDS011;28534;48.100;11.584;2022-07-01T18:43:43;7.43;;;1.90;;
42884;SDS011;28534;48.100;11.584;2022-07-01T18:53:47;4.90;;;1.70;;
42884;SDS011;28534;48.100;11.584;2022-07-01T19:03:48;5.45;;;1.73;;
42884;SDS011;28534;48.100;11.584;2022-07-01T19:13:53;8.02;;;1.90;;
42884;SDS011;28534;48.100;11.584;2022-07-01T19:23:54;5.18;;;1.70;;
42884;SDS011;28534;48.100;11.584;2022-07-01T19:33:58;4.78;;;1.50;;
42884;SDS011;28534;48.100;11.584;2022-07-01T19:44:00;4.88;;;1.40;;
42884;SDS011;28534;48.100;11.584;2022-07-01T19:54:04;4.97;;;1.70;;
42884;SDS011;28534;48.100;11.584;2022-07-01T20:04:06;5.25;;;1.52;;
42884;SDS011;28534;48.100;11.584;2022-07-01T20:14:09;3.58;;;1.50;;
42884;SDS011;28534;48.100;11.584;2022-07-01T20:24:11;4.15;;;1.50;;
42884;SDS011;28534;48.100;11.584;2022-07-01T20:34:14;6.95;;;1.63;;
42884;SDS011;28534;48.100;11.584;2022-07-01T20:44:16;5.78;;;2.00;;
42884;SDS011;28534;48.100;11.584;2022-07-01T20:54:19;4.60;;;1.40;;
42884;SDS011;28534;48.100;11.584;2022-07-01T21:04:24;3.03;;;1.60;;
42884;SDS011;28534;48.100;11.584;2022-07-01T21:14:27;3.72;;;1.63;;
42884;SDS011;28534;48.100;11.584;2022-07-01T21:24:30;4.43;;;1.40;;
42884;SDS011;28534;48.100;11.584;2022-07-01T21:34:33;2.80;;;1.05;;
42884;SDS011;28534;48.100;11.584;2022-07-01T21:44:35;3.10;;;1.23;;
42884;SDS011;28534;48.100;11.584;2022-07-01T21:54:42;2.45;;;1.10;;
42884;SDS011;28534;48.100;11.584;2022-07-01T22:04:45;2.85;;;1.15;;
42884;SDS011;28534;48.100;11.584;2022-07-01T22:14:53;1.35;;;1.05;;
42884;SDS011;28534;48.100;11.584;2022-07-01T22:24:59;2.30;;;1.00;;
42884;SDS011;28534;48.100;11.584;2022-07-01T22:35:02;1.95;;;1.10;;
42884;SDS011;28534;48.100;11.584;2022-07-01T22:45:05;2.05;;;1.10;;
42884;SDS011;28534;48.100;11.584;2022-07-01T22:55:11;3.15;;;1.25;;
42884;SDS011;28534;48.100;11.584;2022-07-01T23:05:24;2.13;;;1.17;;
42884;SDS011;28534;48.100;11.584;2022-07-01T23:15:33;3.00;;;1.20;;
42884;SDS011;28534;48.100;11.584;2022-07-01T23:25:54;3.60;;;1.35;;
42884;SDS011;28534;48.100;11.584;2022-07-01T23:35:58;2.03;;;1.25;;
42884;SDS011;28534;48.100;11.584;2022-07-01T23:46:00;3.03;;;1.50;;
42884;SDS011;28534;48.100;11.584;2022-07-01T23:56:03;3.72;;;1.38;;
